Flight Track Log - Related Links

Times and Time Zones

All times are in EDT time to prevent confusion due to time zone crossing. See the FDX1570 flight status page for this flight to view local times or setup timezone preferences in your user account.

Time Position Orientation Groundspeed Altitude Reporting Facility
EDT Latitude Longitude Course Direction KTS MPH feet Rate Location/Type
Thu 04:11:51 AM 35.0167 -89.9667 65° Northeast 168 193 1,100  Level KMEM
Thu 04:12:54 AM 34.9667 -89.9500 165° South 238 274 3,400 2,947 Climbing KMEM
Thu 04:13:45 AM 34.9667 -89.8833 90° East 298 343 6,700 3,076 Climbing KMEM
Thu 04:15:32 AM 35.0264 -89.7131 67° East 345 397 11,500 2,407 Climbing Memphis Center
Thu 04:16:32 AM 35.0697 -89.5933 66° East 368 423 13,400 2,250 Climbing Memphis Center
Thu 04:17:00 AM 35.2523 -89.0994 65° Northeast  Level FlightAware Approximate
Thu 04:17:32 AM 35.1231 -89.4533 65° Northeast 399 459 16,000  Level Memphis Center
Thu 04:18:32 AM 35.1719 -89.3156 67° East 422 486 18,500 2,300 Climbing Memphis Center
Thu 04:19:32 AM 35.2228 -89.1803 65° Northeast 434 499 20,600 2,000 Climbing Memphis Center
Thu 04:20:32 AM 35.2881 -89.0394 60° Northeast 452 520 22,500 1,800 Climbing Memphis Center
Thu 04:21:32 AM 35.3639 -88.9058 55° Northeast 469 540 24,200 1,650 Climbing Memphis Center
Thu 04:22:32 AM 35.4414 -88.7744 54° Northeast 475 547 25,800 1,500 Climbing Memphis Center
Thu 04:23:32 AM 35.5211 -88.6428 53° Northeast 475 547 27,200 1,450 Climbing Memphis Center
Thu 04:24:32 AM 35.6067 -88.5031 53° Northeast 487 560 28,700 1,900 Climbing Memphis Center
Thu 04:25:32 AM 35.6881 -88.3683 53° Northeast 487 560 31,000 2,250 Climbing Memphis Center
Thu 04:26:32 AM 35.7650 -88.2386 54° Northeast 482 555 33,200 1,600 Climbing Memphis Center
Thu 04:27:32 AM 35.8461 -88.1086 52° Northeast 482 555 34,200 1,150 Climbing Memphis Center
Thu 04:28:32 AM 35.9311 -87.9703 53° Northeast 482 555 35,500 1,400 Climbing Memphis Center
Thu 04:29:32 AM 36.0139 -87.8319 53° Northeast 492 566 37,000 1,350 Climbing Memphis Center
Thu 04:30:32 AM 36.0886 -87.7064 54° Northeast 503 579 38,200 1,000 Climbing Memphis Center
Thu 04:31:32 AM 36.1689 -87.5700 54° Northeast 503 579 39,000 400 Climbing Memphis Center
Thu 04:32:32 AM 36.2511 -87.4283 54° Northeast 503 579 39,000  Level Memphis Center
Thu 04:33:32 AM 36.3331 -87.2861 54° Northeast 509 586 39,000  Level Memphis Center
Thu 04:34:32 AM 36.4172 -87.1439 54° Northeast 516 594 39,000  Level Memphis Center
Thu 04:35:32 AM 36.5131 -86.9850 53° Northeast 516 594 39,000  Level Memphis Center
Thu 04:36:32 AM 36.5942 -86.8369 56° Northeast 526 605 39,000  Level Memphis Center
Thu 04:37:32 AM 36.6756 -86.6911 55° Northeast 521 600 39,000  Level Memphis Center
Thu 04:38:32 AM 36.7586 -86.5475 54° Northeast 521 600 39,000  Level Memphis Center
Thu 04:40:29 AM 36.9136 -86.2744 55° Northeast 514 592 39,000  Level Indianapolis Center
Thu 04:41:30 AM 36.9972 -86.1267 55° Northeast 517 595 39,000  Level Indianapolis Center
Thu 04:42:30 AM 37.0803 -85.9803 55° Northeast 514 592 39,000  Level Indianapolis Center
Thu 04:43:31 AM 37.1633 -85.8322 55° Northeast 514 592 39,000  Level Indianapolis Center
Thu 04:44:31 AM 37.2461 -85.6833 55° Northeast 514 592 39,000  Level Indianapolis Center
Thu 04:45:32 AM 37.3247 -85.5422 55° Northeast 514 592 39,000  Level Indianapolis Center
Thu 04:46:33 AM 37.4064 -85.3942 55° Northeast 512 589 39,000  Level Indianapolis Center
Thu 04:47:33 AM 37.4892 -85.2444 55° Northeast 516 594 39,000  Level Indianapolis Center
Thu 04:48:34 AM 37.5706 -85.0953 55° Northeast 514 592 39,000  Level Indianapolis Center
Thu 04:49:34 AM 37.6503 -84.9469 56° Northeast 512 589 39,000  Level Indianapolis Center
Thu 04:50:35 AM 37.7453 -84.7742 55° Northeast 512 589 39,000  Level Indianapolis Center
Thu 04:51:36 AM 37.8261 -84.6261 55° Northeast 510 587 39,000  Level Indianapolis Center
Thu 04:52:36 AM 37.9039 -84.4797 56° Northeast 502 578 39,000  Level Indianapolis Center
Thu 04:53:37 AM 37.9825 -84.3347 55° Northeast 499 574 39,000  Level Indianapolis Center
Thu 04:54:38 AM 38.0611 -84.1875 56° Northeast 506 582 39,000  Level Indianapolis Center
Thu 04:55:38 AM 38.1408 -84.0367 56° Northeast 512 589 39,000  Level Indianapolis Center
Thu 04:56:39 AM 38.2183 -83.8883 56° Northeast 504 580 39,000  Level Indianapolis Center
Thu 04:57:40 AM 38.2953 -83.7425 56° Northeast 497 572 39,000  Level Indianapolis Center
Thu 04:58:41 AM 38.3719 -83.5950 56° Northeast 497 572 39,000  Level Indianapolis Center
Thu 04:59:41 AM 38.4489 -83.4464 56° Northeast 500 575 39,000  Level Indianapolis Center
Thu 05:00:42 AM 38.5267 -83.3006 56° Northeast 497 572 39,000  Level Indianapolis Center
Thu 05:01:43 AM 38.6008 -83.1522 57° Northeast 495 570 39,000  Level Indianapolis Center
Thu 05:02:43 AM 38.6769 -83.0075 56° Northeast 494 568 39,000  Level Indianapolis Center
Thu 05:03:44 AM 38.7517 -82.8614 57° Northeast 490 564 39,000  Level Indianapolis Center
Thu 05:04:45 AM 38.8258 -82.7156 57° Northeast 488 562 39,000  Level Indianapolis Center
Thu 05:05:46 AM 38.8997 -82.5703 57° Northeast 485 558 39,000  Level Indianapolis Center
Thu 05:06:46 AM 38.9708 -82.4242 58° Northeast 481 554 39,000  Level Indianapolis Center
Thu 05:07:47 AM 39.0356 -82.2708 61° Northeast 485 558 39,000  Level Indianapolis Center
Thu 05:08:48 AM 39.0989 -82.1172 62° Northeast 484 557 39,000  Level Indianapolis Center
Thu 05:09:48 AM 39.1661 -81.9656 60° Northeast 484 557 39,000  Level Indianapolis Center
Thu 05:10:49 AM 39.2333 -81.8103 61° Northeast 490 564 39,000  Level Indianapolis Center
Thu 05:11:50 AM 39.3000 -81.6567 61° Northeast 487 560 39,000  Level Indianapolis Center
Thu 05:12:51 AM 39.3675 -81.5056 60° Northeast 483 556 39,000  Level Indianapolis Center
Thu 05:13:44 AM 39.4350 -81.3569 60° Northeast 485 558 39,000  Level Cleveland Center
Thu 05:14:44 AM 39.5006 -81.2072 60° Northeast 485 558 39,000  Level Cleveland Center
Thu 05:15:44 AM 39.5806 -81.0653 54° Northeast 485 558 39,000  Level Cleveland Center
Thu 05:16:44 AM 39.6539 -80.9200 57° Northeast 479 551 39,000  Level Cleveland Center
Thu 05:17:44 AM 39.7250 -80.7775 57° Northeast 479 551 39,000  Level Cleveland Center
Thu 05:18:44 AM 39.7983 -80.6264 58° Northeast 484 557 39,000  Level Cleveland Center
Thu 05:19:44 AM 39.8711 -80.4750 58° Northeast 484 557 39,000  Level Cleveland Center
Thu 05:20:44 AM 39.9419 -80.3286 58° Northeast 479 551 39,000  Level Cleveland Center
Thu 05:21:44 AM 40.0122 -80.1792 58° Northeast 479 551 39,000  Level Cleveland Center
Thu 05:22:44 AM 40.0847 -80.0322 57° Northeast 479 551 39,000  Level Cleveland Center
Thu 05:23:44 AM 40.1547 -79.8822 59° Northeast 479 551 39,000  Level Cleveland Center
Thu 05:24:44 AM 40.2267 -79.7319 58° Northeast 479 551 39,000  Level Cleveland Center
Thu 05:25:44 AM 40.2961 -79.5814 59° Northeast 479 551 39,000  Level Cleveland Center
Thu 05:26:44 AM 40.3678 -79.4278 58° Northeast 479 551 39,000  Level Cleveland Center
Thu 05:27:44 AM 40.4369 -79.2792 59° Northeast 479 551 39,000  Level Cleveland Center
Thu 05:28:44 AM 40.5061 -79.1275 59° Northeast 479 551 39,000  Level Cleveland Center
Thu 05:29:44 AM 40.5769 -78.9731 59° Northeast 479 551 39,000  Level Cleveland Center
Thu 05:30:44 AM 40.6417 -78.8319 59° Northeast 479 551 39,000  Level Cleveland Center
Thu 05:32:52 AM 40.8017 -78.4861 58° Northeast 501 577 39,000  Level New York Center
Thu 05:33:54 AM 40.8822 -78.3361 55° Northeast 495 570 39,000  Level New York Center
Thu 05:34:53 AM 40.9533 -78.2008 55° Northeast 500 575 39,000 -100 Level New York Center
Thu 05:35:54 AM 41.0336 -78.0500 55° Northeast 500 575 38,800 -807 Descending New York Center
Thu 05:36:52 AM 41.1133 -77.9044 54° Northeast 500 575 37,400 -1,210 Descending New York Center
Thu 05:37:53 AM 41.1975 -77.7478 54° Northeast 500 575 36,400 -1,240 Descending New York Center
Thu 05:38:53 AM 41.2797 -77.5906 55° Northeast 505 581 34,900 -1,765 Descending New York Center
Thu 05:39:52 AM 41.3636 -77.4331 55° Northeast 512 589 32,900 -2,050 Descending New York Center
Thu 05:40:53 AM 41.4431 -77.2775 56° Northeast 507 583 30,800 -1,918 Descending New York Center
Thu 05:41:54 AM 41.5200 -77.1269 56° Northeast 507 583 29,000 -1,820 Descending New York Center
Thu 05:42:55 AM 41.5964 -76.9817 55° Northeast 496 571 27,100 -1,000 Descending New York Center
Thu 05:43:54 AM 41.6706 -76.8386 55° Northeast 476 548 27,000 -907 Descending New York Center
Thu 05:46:20 AM 41.8408 -76.4172 61° Northeast 507 583 24,000 -874 Descending Boston Center
Thu 05:47:20 AM 41.9053 -76.2397 64° Northeast 523 602 24,000  Level Boston Center
Thu 05:48:20 AM 41.9672 -76.0647 64° Northeast 523 602 24,000  Level Boston Center
Thu 05:49:20 AM 42.0333 -75.8867 63° Northeast 523 602 24,000  Level Boston Center
Thu 05:50:20 AM 42.0992 -75.7056 64° Northeast 523 602 24,000  Level Boston Center
Thu 05:51:20 AM 42.1622 -75.5325 64° Northeast 523 602 24,000 -450 Level Boston Center
Thu 05:52:20 AM 42.2300 -75.3422 64° Northeast 518 596 23,100 -2,050 Descending Boston Center
Thu 05:53:20 AM 42.2906 -75.1683 65° Northeast 513 590 19,900 -3,050 Descending Boston Center
Thu 05:54:20 AM 42.3417 -75.0244 64° Northeast 493 567 17,000 -2,650 Descending Boston Center
Thu 05:55:20 AM 42.3972 -74.8692 64° Northeast 474 545 14,600 -2,588 Descending Boston Center
Thu 05:56:02 AM 42.4375 -74.7442 66° East 442 509 12,600 -2,700 Descending Boston Center
Thu 05:56:20 AM 42.4486 -74.7136 64° Northeast 455 524 11,900 -1,231 Descending Boston Center
Thu 05:57:20 AM 42.5017 -74.5522 66° East 433 498 11,000 -550 Descending Boston Center
Thu 05:58:20 AM 42.5228 -74.4206 78° East 403 464 10,800 -1,000 Descending Boston Center
Thu 05:59:20 AM 42.5522 -74.2861 73° East 350 403 9,000 -1,875 Descending Boston Center
Thu 05:59:40 AM 42.5611 -74.2497 72° East 324 373 8,300 -1,900 Descending Boston Center
Thu 06:00:20 AM 42.5767 -74.1797 73° East 325 374 7,100 -1,770 Descending Boston Center
Thu 06:00:41 AM 42.5858 -74.1350 74° East 315 362 6,500 -800 Descending Boston Center
Thu 06:01:20 AM 42.5992 -74.0731 74° East 304 350 6,300 -873 Descending Boston Center
Thu 06:01:36 AM 42.6058 -74.0453 72° East 257 296 5,700 -1,700 Descending Boston Center
Thu 06:02:20 AM 42.6192 -73.9864 73° East 270 311 4,600 -1,900 Descending Boston Center
Thu 06:02:36 AM 42.6239 -73.9525 79° East 247 284 3,800 -1,600 Descending Boston Center
Thu 06:03:20 AM 42.6369 -73.8964 72° East 251 289 3,000 -1,574 Descending Boston Center
Thu 06:03:37 AM 42.6436 -73.8597 76° East 231 266 2,200 -1,000 Descending Boston Center
Thu 06:04:20 AM 42.6569 -73.8008 73° East 238 274 2,000 5,126 Descending Boston Center
Thu 06:05:20 AM 42.6703 -73.7333 75° East 238 274 11,000 4,500 Climbing Boston Center
Thu 06:06:20 AM 42.6900 -73.6319 75° East 238 274 11,000  Level Boston Center
Thu 06:07:20 AM 42.7056 -73.5478 76° East 238 274 11,000  Level Boston Center
Thu 06:08:20 AM 42.7164 -73.4969 74° East 238 274 11,000  Level Boston Center
Thu 06:10:20 AM 42.7164 -73.4969 251° West 238 274 11,000  Level Boston Center

Login

Don't have an account? Register now (free) for customized features, flight alerts, and more!